• Join FlightAware (Why Join?)
  • Login
  • US Flag 
08:54PM EDT


 

Airport Tracker/Info


-or-


 

Live Flight TrackerFlight Track Log ✈ FSR411 ✈ 20-Aug-2014 ✈ KSUS - KTVC

Flight Track Log - Related Links

Times and Time Zones

All times are in EDT time to prevent confusion due to time zone crossing. See the FSR411 flight status page for this flight to view local times or setup timezone preferences in your user account.

Time Position Orientation Groundspeed Altitude Reporting Facility
EDT Latitude Longitude Course Direction KTS MPH feet Rate Location/Type
10:13AM 38.6522 -90.6950 278° West 206 237 2,000  Level Kansas City Center
10:14AM 38.6600 -90.7622 278° West 211 243 4,400 2,160 Climbing Kansas City Center
10:15AM 38.7375 -90.7767 352° North 273 314 6,500 1,200 Climbing Kansas City Center
10:16AM 38.8194 -90.7831 357° North 288 331 7,000 240 Climbing Kansas City Center
10:17AM 38.9003 -90.7861 358° North 289 333 7,100 660 Climbing Kansas City Center
10:18AM 38.9647 -90.7117 42° Northeast 305 351 8,400 1,860 Climbing Kansas City Center
10:19AM 39.0481 -90.6136 42° Northeast 331 381 11,000 2,700 Climbing Kansas City Center
10:20AM 39.1261 -90.5228 42° Northeast 368 423 14,100 3,000 Climbing Kansas City Center
10:21AM 39.2044 -90.4172 46° Northeast 406 467 17,200 2,880 Climbing Kansas City Center
10:22AM 39.1922 -90.2547 95° East 442 509 20,100 2,340 Climbing Kansas City Center
10:23AM 39.1633 -90.1053 104° East 437 503 22,100 2,040 Climbing Kansas City Center
10:24AM 39.1372 -89.9336 101° East 433 498 24,400 2,040 Climbing Kansas City Center
10:25AM 39.1283 -89.7756 94° East 437 503 26,400 1,200 Climbing Kansas City Center
10:26AM 39.1244 -89.6097 92° East 456 525 27,000 240 Climbing Kansas City Center
10:27AM 39.1153 -89.4369 94° East 477 549 27,000  Level Kansas City Center
10:28AM 39.1006 -89.2547 96° East 485 558 27,000  Level Kansas City Center
10:29AM 39.0917 -89.0783 94° East 492 566 27,000 900 Level Kansas City Center
10:30AM 39.1128 -88.9117 81° East 478 550 28,900 1,740 Climbing Kansas City Center
10:31AM 39.1733 -88.7775 60° Northeast 444 511 30,700 960 Climbing Kansas City Center
10:32AM 39.2886 -88.6697 36° Northeast 430 495 31,000 120 Climbing Kansas City Center
10:33AM 39.3783 -88.5661 42° Northeast 437 503 31,000  Level Kansas City Center
10:35AM 39.4664 -88.4636 42° Northeast 431 496 31,000  Level Kansas City Center
10:36AM 39.5531 -88.3622 42° Northeast 427 491 31,000  Level Kansas City Center
10:37AM 39.6542 -88.3003 25° Northeast 422 486 31,000  Level Kansas City Center
10:38AM 39.7869 -88.2381 20° North 421 484 31,000  Level Kansas City Center
10:39AM 39.8786 -88.1933 21° North 438 504 31,000 180 Level Chicago Center
10:40AM 39.9867 -88.1403 21° North 442 509 31,400 900 Climbing Chicago Center
10:41AM 40.1242 -88.0719 21° North 442 509 32,900 1,740 Climbing Chicago Center
10:42AM 40.2297 -88.0189 21° North 432 497 35,100 1,920 Climbing Chicago Center
10:43AM 40.3322 -87.9689 20° North 401 461 36,900 1,560 Climbing Chicago Center
10:44AM 40.4344 -87.9161 21° North 398 458 38,400 1,380 Climbing Chicago Center
10:45AM 40.5553 -87.8561 21° North 391 450 39,800 1,080 Climbing Chicago Center
10:46AM 40.6547 -87.8039 22° Northeast 389 448 40,700 840 Climbing Chicago Center
10:47AM 40.7539 -87.7542 21° North 385 443 41,600 780 Climbing Chicago Center
10:48AM 40.8533 -87.7050 21° North 384 442 42,400 660 Climbing Chicago Center
10:49AM 40.9503 -87.6533 22° Northeast 382 440 43,000 240 Climbing Chicago Center
10:50AM 41.0717 -87.5911 21° North 387 445 43,000  Level Chicago Center
10:51AM 41.1781 -87.5367 21° North 408 470 43,000  Level Chicago Center
10:52AM 41.2864 -87.4800 21° North 418 481 43,000  Level Chicago Center
10:53AM 41.3972 -87.4219 21° North 428 493 43,000 -420 Level Chicago Center
10:54AM 41.5100 -87.3656 21° North 437 503 42,200 -1,020 Descending Chicago Center
10:55AM 41.6378 -87.2975 22° Northeast 419 482 41,000 -1,260 Descending Chicago Center
10:56AM 41.7400 -87.2444 21° North 401 461 39,600 -1,620 Descending Chicago Center
10:57AM 41.8408 -87.1919 21° North 394 453 37,700 -1,800 Descending Chicago Center
10:58AM 41.9483 -87.1344 22° Northeast 411 473 35,900 -1,980 Descending Chicago Center
10:59AM 42.0542 -87.0797 21° North 413 475 33,700 -2,040 Descending Chicago Center
11:00AM 42.1603 -87.0228 22° Northeast 412 474 31,800 -1,320 Descending Chicago Center
11:01AM 42.2925 -86.9525 21° North 423 487 31,000 -420 Descending Chicago Center
11:02AM 42.4044 -86.8928 21° North 431 496 31,000  Level Chicago Center
11:03AM 42.5244 -86.8275 22° Northeast 463 533 31,000  Level Chicago Center
11:04AM 42.6303 -86.7711 21° North 462 532 31,000  Level Chicago Center
11:05AM 42.7725 -86.6933 22° Northeast 461 531 31,000  Level Chicago Center
11:06AM 42.8931 -86.6292 21° North 461 531 31,000  Level Chicago Center
11:07AM 43.0139 -86.5636 22° Northeast 461 531 31,000  Level Chicago Center
11:08AM 43.1328 -86.4961 23° Northeast 461 531 31,000  Level Chicago Center
11:09AM 43.2550 -86.4281 22° Northeast 464 534 31,000 -720 Level Chicago Center
11:10AM 43.3747 -86.3625 22° Northeast 463 533 29,600 -1,920 Descending Chicago Center
11:12AM 43.4939 -86.2958 22° Northeast 462 532 27,100 -2,460 Descending Chicago Center
11:13AM 43.6125 -86.2294 22° Northeast 459 528 24,600 -1,560 Descending Chicago Center
11:14AM 43.7325 -86.1619 22° Northeast 461 531 24,000 -1,020 Descending Chicago Center
11:15AM 43.8722 -86.0825 22° Northeast 454 522 22,600 -1,020 Descending Chicago Center
11:16AM 43.9803 -86.0228 22° Northeast 453 521 22,000 -300 Descending Chicago Center
11:17AM 44.1158 -85.9411 23° Northeast 448 516 22,000 -360 Level Minneapolis Center
11:18AM 44.2097 -85.8381 38° Northeast 450 518 21,300 -1,020 Descending Minneapolis Center
11:19AM 44.2831 -85.7047 52° Northeast 441 507 20,000 -1,500 Descending Minneapolis Center
11:20AM 44.3556 -85.5739 52° Northeast 436 502 18,300 -2,760 Descending Minneapolis Center
11:21AM 44.4356 -85.4308 52° Northeast 397 457 14,300 -3,720 Descending Minneapolis Center
11:22AM 44.4989 -85.3253 50° Northeast 368 423 10,700 -3,120 Descending Minneapolis Center
11:23AM 44.5522 -85.2381 49° Northeast 312 359 7,800 -2,580 Descending Minneapolis Center
11:24AM 44.6292 -85.2153 12° North 294 338 5,400 -1,440 Descending Minneapolis Center
11:25AM 44.6942 -85.1969 11° North 269 310 4,900 -540 Descending Minneapolis Center
11:26AM 44.7283 -85.2544 310° West 225 259 4,400 -540 Descending Minneapolis Center
11:27AM 44.7306 -85.3311 272° West 207 238 3,900 -720 Descending Minneapolis Center
11:28AM 44.7319 -85.3964 272° West 188 216 3,000 -840 Descending Minneapolis Center
11:29AM 44.7347 -85.4494 274° West 161 185 2,200 -720 Descending Minneapolis Center
11:30AM 44.7369 -85.4953 274° West 135 155 1,500 -720 Descending Minneapolis Center